createdAt,value
2023-03-11T00:01:11.550Z,2.90
2023-03-11T00:04:12.613Z,3.20
2023-03-11T00:07:43.895Z,2.90
2023-03-11T00:14:55.587Z,2.50
2023-03-11T00:28:49.175Z,2.00
2023-03-11T00:32:01.654Z,2.10
2023-03-11T00:35:53.538Z,2.30
2023-03-11T00:39:31.235Z,1.90
2023-03-11T00:42:58.880Z,2.40
2023-03-11T00:46:45.459Z,2.40
2023-03-11T00:50:24.154Z,3.00
2023-03-11T00:53:38.816Z,2.10
2023-03-11T00:57:19.998Z,1.40
2023-03-11T01:00:52.611Z,1.30
2023-03-11T01:04:14.411Z,1.30
2023-03-11T01:07:34.329Z,1.20
2023-03-11T01:11:05.348Z,1.40
2023-03-11T01:14:51.396Z,1.30
2023-03-11T01:18:22.244Z,1.20
2023-03-11T01:25:21.107Z,1.10
2023-03-11T01:28:43.516Z,0.90
2023-03-11T01:31:54.255Z,1.00
2023-03-11T01:34:47.548Z,0.80
2023-03-11T01:37:19.800Z,1.00
2023-03-11T01:40:19.964Z,0.80
2023-03-11T01:44:25.178Z,0.80
2023-03-11T01:47:12.316Z,0.80
2023-03-11T01:50:26.008Z,1.30
2023-03-11T01:53:12.192Z,0.60
2023-03-11T01:56:25.392Z,0.70
2023-03-11T02:00:04.245Z,0.90
2023-03-11T02:03:47.751Z,0.90
2023-03-11T02:06:57.992Z,0.90
2023-03-11T02:13:03.142Z,1.30
2023-03-11T02:16:09.523Z,1.10
2023-03-11T02:19:04.137Z,1.20
2023-03-11T02:22:44.325Z,1.20
2023-03-11T02:25:42.878Z,1.20
2023-03-11T02:29:02.842Z,1.60
2023-03-11T02:31:58.281Z,1.40
2023-03-11T02:35:12.000Z,1.30
2023-03-11T02:38:13.211Z,1.60
2023-03-11T02:41:23.707Z,1.50
2023-03-11T02:43:50.608Z,1.40
2023-03-11T02:46:47.547Z,1.70
2023-03-11T02:49:34.162Z,1.80
2023-03-11T02:52:25.816Z,1.60
2023-03-11T02:55:17.473Z,1.20
2023-03-11T02:57:57.202Z,1.40
2023-03-11T03:01:07.106Z,1.50
2023-03-11T03:03:40.434Z,1.30
2023-03-11T03:06:13.035Z,1.20
2023-03-11T03:08:40.202Z,1.10
2023-03-11T03:11:20.635Z,1.30
2023-03-11T03:14:08.523Z,1.40
2023-03-11T03:16:58.541Z,1.40
2023-03-11T03:19:48.527Z,1.60
2023-03-11T03:22:35.509Z,1.70
2023-03-11T03:25:25.801Z,1.40
2023-03-11T03:28:04.195Z,1.30
2023-03-11T03:30:50.652Z,1.50
2023-03-11T03:33:21.353Z,1.40
2023-03-11T03:35:53.858Z,1.50
2023-03-11T03:38:44.993Z,1.40
2023-03-11T03:42:05.745Z,1.30
2023-03-11T03:44:52.677Z,1.40
2023-03-11T03:47:40.281Z,1.20
2023-03-11T03:50:14.045Z,1.50
2023-03-11T03:53:06.878Z,1.60
2023-03-11T03:55:59.505Z,1.30
2023-03-11T03:58:47.077Z,1.50
2023-03-11T04:01:34.238Z,1.60
2023-03-11T04:04:30.247Z,1.70
2023-03-11T04:07:11.072Z,1.40
2023-03-11T04:10:18.589Z,1.10
2023-03-11T04:13:19.236Z,1.50
2023-03-11T04:15:46.885Z,1.80
2023-03-11T04:18:22.131Z,1.30
2023-03-11T04:21:30.305Z,1.10
2023-03-11T04:23:59.851Z,1.50
2023-03-11T04:27:10.619Z,1.40
2023-03-11T04:29:49.620Z,1.20
2023-03-11T04:32:42.847Z,1.40
2023-03-11T04:35:27.184Z,1.30
2023-03-11T04:38:45.011Z,1.20
2023-03-11T04:41:54.995Z,1.70
2023-03-11T04:44:34.162Z,1.60
2023-03-11T04:47:42.294Z,2.10
2023-03-11T04:51:10.635Z,2.10
2023-03-11T04:54:46.062Z,1.40
2023-03-11T04:58:33.795Z,1.10
2023-03-11T05:02:12.916Z,0.80
2023-03-11T05:05:56.967Z,0.90
2023-03-11T05:09:44.566Z,1.00
2023-03-11T05:13:12.002Z,1.40
2023-03-11T05:16:22.898Z,1.60
2023-03-11T05:20:19.994Z,1.60
2023-03-11T05:23:52.872Z,1.60
2023-03-11T05:26:51.850Z,1.70
2023-03-11T05:30:33.090Z,1.80
2023-03-11T05:34:08.168Z,2.00
2023-03-11T05:37:39.610Z,1.90
2023-03-11T05:41:02.684Z,1.90
2023-03-11T05:44:21.924Z,1.70
2023-03-11T05:47:12.805Z,1.60
2023-03-11T05:49:46.536Z,1.80
2023-03-11T05:52:57.273Z,1.80
2023-03-11T05:55:53.608Z,1.80
2023-03-11T05:58:21.255Z,2.70
2023-03-11T06:01:47.286Z,2.00
2023-03-11T06:05:07.366Z,1.80
2023-03-11T06:08:39.112Z,1.70
2023-03-11T06:11:37.825Z,1.60
2023-03-11T06:14:28.172Z,1.60
2023-03-11T06:17:19.235Z,1.90
2023-03-11T06:20:07.196Z,1.70
2023-03-11T06:22:57.184Z,2.30
2023-03-11T06:25:47.310Z,1.70
2023-03-11T06:28:17.059Z,1.60
2023-03-11T06:31:30.851Z,1.70
2023-03-11T06:34:33.848Z,1.50
2023-03-11T06:37:52.522Z,1.40
2023-03-11T06:40:40.288Z,1.50
2023-03-11T06:43:07.285Z,1.70
2023-03-11T06:45:54.535Z,1.60
2023-03-11T06:49:32.174Z,2.40
2023-03-11T06:52:23.904Z,2.20
2023-03-11T06:55:13.524Z,1.90
2023-03-11T06:58:01.190Z,1.80
2023-03-11T07:00:55.300Z,2.10
2023-03-11T07:03:48.432Z,2.30
2023-03-11T07:06:35.851Z,2.10
2023-03-11T07:09:39.285Z,2.40
2023-03-11T07:13:10.378Z,2.00
2023-03-11T07:16:45.234Z,2.50
2023-03-11T07:56:24.246Z,3.10
2023-03-11T07:59:32.066Z,2.90
2023-03-11T08:02:39.323Z,3.30
2023-03-11T08:06:20.285Z,2.80
2023-03-11T08:09:59.516Z,4.60
2023-03-11T08:13:07.006Z,2.90
2023-03-11T08:16:46.296Z,3.80
2023-03-11T08:20:27.458Z,3.70
2023-03-11T08:23:44.687Z,3.50
2023-03-11T08:27:05.719Z,4.40
2023-03-11T08:30:53.814Z,4.30
2023-03-11T08:34:38.979Z,11.00
2023-03-11T08:37:36.659Z,3.70
2023-03-11T08:41:04.594Z,3.40
2023-03-11T08:47:51.230Z,3.50
2023-03-11T08:51:03.051Z,3.70
2023-03-11T08:54:19.024Z,5.60
2023-03-11T08:57:37.690Z,4.20
2023-03-11T09:01:19.792Z,4.60
2023-03-11T09:04:51.329Z,4.40
2023-03-11T09:08:20.256Z,4.40
2023-03-11T09:12:09.448Z,3.90
2023-03-11T09:15:50.347Z,5.00
2023-03-11T09:19:19.305Z,3.50
2023-03-11T09:23:08.833Z,3.50
2023-03-11T09:26:36.492Z,4.50
2023-03-11T09:30:17.969Z,5.50
2023-03-11T09:33:49.885Z,5.00
2023-03-11T10:03:25.165Z,4.40
2023-03-11T10:07:23.570Z,5.10
2023-03-11T10:10:24.209Z,4.70
2023-03-11T10:14:25.426Z,4.30
2023-03-11T10:17:38.654Z,5.00
2023-03-11T10:21:27.701Z,4.90
2023-03-11T10:24:54.351Z,4.90
2023-03-11T10:28:12.666Z,3.20
2023-03-11T10:31:25.543Z,4.20
2023-03-11T10:35:18.412Z,4.30
2023-03-11T10:38:39.391Z,3.30
2023-03-11T10:42:02.709Z,4.40
2023-03-11T10:44:40.316Z,4.40
2023-03-11T10:47:32.327Z,4.20
2023-03-11T10:50:36.419Z,4.20
2023-03-11T10:53:10.616Z,4.20
2023-03-11T10:55:52.510Z,5.00
2023-03-11T10:58:31.567Z,4.30
2023-03-11T11:01:32.133Z,4.30
2023-03-11T11:04:05.089Z,4.80
2023-03-11T11:06:37.369Z,4.60
2023-03-11T11:09:36.208Z,2.50
2023-03-11T11:12:34.351Z,4.40
2023-03-11T11:15:47.525Z,4.70
2023-03-11T11:19:05.207Z,5.70
2023-03-11T11:21:53.569Z,5.20
2023-03-11T11:24:27.348Z,5.10
2023-03-11T11:27:51.448Z,4.70
2023-03-11T11:30:50.935Z,4.90
2023-03-11T11:34:13.517Z,5.10
2023-03-11T11:37:14.381Z,5.00
2023-03-11T11:40:22.208Z,5.20
2023-03-11T11:43:47.916Z,5.20
2023-03-11T12:02:31.970Z,6.20
2023-03-11T12:05:58.187Z,6.20
2023-03-11T12:09:53.301Z,5.80
2023-03-11T12:13:43.237Z,6.70
2023-03-11T12:17:18.289Z,5.50
2023-03-11T12:21:03.501Z,4.80
2023-03-11T12:23:55.203Z,6.00
2023-03-11T12:27:29.547Z,6.30
2023-03-11T12:30:40.402Z,6.10
2023-03-11T12:49:00.469Z,5.30
2023-03-11T12:52:31.521Z,5.20
2023-03-11T12:55:11.452Z,6.30
2023-03-11T12:58:38.169Z,5.70
2023-03-11T13:02:00.049Z,5.20
2023-03-11T13:05:01.155Z,5.40
2023-03-11T13:07:51.815Z,5.80
2023-03-11T13:10:43.103Z,6.30
2023-03-11T13:13:45.945Z,5.80
2023-03-11T13:16:24.294Z,6.30
2023-03-11T13:19:34.164Z,5.30
2023-03-11T13:22:43.882Z,5.50
2023-03-11T13:25:42.238Z,5.90
2023-03-11T13:29:06.564Z,6.00
2023-03-11T13:32:19.534Z,5.70
2023-03-11T13:35:01.995Z,5.70
2023-03-11T13:38:35.555Z,5.70
2023-03-11T13:41:13.785Z,5.60
2023-03-11T13:46:42.334Z,6.80
2023-03-11T13:49:56.723Z,6.50
2023-03-11T13:52:45.019Z,7.70
2023-03-11T13:56:16.058Z,8.40
2023-03-11T13:59:18.240Z,7.80
2023-03-11T14:02:58.229Z,8.60
2023-03-11T14:06:01.838Z,9.50
2023-03-11T14:09:46.440Z,8.30
2023-03-11T14:13:26.184Z,8.10
2023-03-11T14:16:34.643Z,9.00
2023-03-11T14:19:43.318Z,8.30
2023-03-11T14:26:01.649Z,8.50
2023-03-11T14:29:25.024Z,8.90
2023-03-11T14:32:23.922Z,8.10
2023-03-11T14:38:50.578Z,7.10
2023-03-11T14:42:50.899Z,8.00
2023-03-11T15:01:47.814Z,5.80
2023-03-11T15:16:54.354Z,8.30
2023-03-11T15:19:45.522Z,7.80
2023-03-11T15:22:41.004Z,8.80
2023-03-11T15:26:10.336Z,8.10
2023-03-11T15:28:52.609Z,8.40
2023-03-11T15:31:42.999Z,9.70
2023-03-11T15:34:35.411Z,8.10
2023-03-11T15:37:45.915Z,8.70
2023-03-11T15:40:45.274Z,8.20
2023-03-11T15:44:28.622Z,7.90
2023-03-11T15:47:55.373Z,9.00
2023-03-11T15:51:47.602Z,10.00
2023-03-11T15:57:40.450Z,9.10
2023-03-11T16:20:38.529Z,7.50
2023-03-11T16:23:51.924Z,9.00
2023-03-11T16:26:23.245Z,7.90
2023-03-11T16:29:16.580Z,7.90
2023-03-11T16:31:57.796Z,8.40
2023-03-11T16:34:46.584Z,7.90
2023-03-11T16:37:58.325Z,8.80
2023-03-11T16:40:28.468Z,7.80
2023-03-11T16:43:34.097Z,8.60
2023-03-11T16:46:54.469Z,8.30
2023-03-11T16:49:55.603Z,8.30
2023-03-11T16:52:33.001Z,9.20
2023-03-11T16:55:06.771Z,9.90
2023-03-11T16:57:57.997Z,9.70
2023-03-11T17:00:27.294Z,11.10
2023-03-11T17:02:55.444Z,11.20
2023-03-11T17:05:38.357Z,10.30
2023-03-11T17:08:09.906Z,9.10
2023-03-11T17:10:46.627Z,9.50
2023-03-11T17:13:35.068Z,9.90
2023-03-11T17:16:08.958Z,10.40
2023-03-11T17:18:40.156Z,9.80
2023-03-11T17:21:10.566Z,10.50
2023-03-11T17:23:44.816Z,10.10
2023-03-11T17:26:18.283Z,9.30
2023-03-11T17:28:46.836Z,9.80
2023-03-11T17:31:16.508Z,8.80
2023-03-11T17:33:46.157Z,10.00
2023-03-11T17:36:16.683Z,10.20
2023-03-11T17:39:05.381Z,11.50
2023-03-11T17:41:36.960Z,9.10
2023-03-11T17:44:05.527Z,9.40
2023-03-11T17:46:36.429Z,9.40
2023-03-11T17:49:12.722Z,9.20
2023-03-11T17:52:00.906Z,11.20
2023-03-11T17:54:32.000Z,11.60
2023-03-11T17:57:02.994Z,10.10
2023-03-11T17:59:31.350Z,11.60
2023-03-11T18:01:59.569Z,11.70
2023-03-11T18:04:31.770Z,10.90
2023-03-11T18:07:23.772Z,11.60
2023-03-11T18:09:55.301Z,10.30
2023-03-11T18:12:24.480Z,10.60
2023-03-11T18:14:52.533Z,10.40
2023-03-11T18:17:23.115Z,11.20
2023-03-11T18:19:51.133Z,11.40
2023-03-11T18:22:19.441Z,10.70
2023-03-11T18:25:00.259Z,11.40
2023-03-11T18:27:28.679Z,12.00
2023-03-11T18:29:57.087Z,12.20
2023-03-11T18:32:25.664Z,11.00
2023-03-11T18:34:53.821Z,9.20
2023-03-11T18:37:21.940Z,9.30
2023-03-11T18:39:50.473Z,9.10
2023-03-11T18:42:18.679Z,10.30
2023-03-11T18:44:47.019Z,9.90
2023-03-11T18:47:15.377Z,9.70
2023-03-11T18:49:43.780Z,10.00
2023-03-11T18:52:12.359Z,8.90
2023-03-11T18:55:19.519Z,10.00
2023-03-11T18:57:47.873Z,8.60
2023-03-11T19:00:22.737Z,10.40
2023-03-11T19:03:00.326Z,13.50
2023-03-11T19:05:50.794Z,13.10
2023-03-11T19:08:22.388Z,14.40
2023-03-11T19:10:50.977Z,14.20
2023-03-11T19:13:22.281Z,13.70
2023-03-11T19:15:53.847Z,13.60
2023-03-11T19:18:24.805Z,14.40
2023-03-11T19:20:58.734Z,13.60
2023-03-11T19:23:30.198Z,15.00
2023-03-11T19:26:18.832Z,14.80
2023-03-11T19:28:47.545Z,14.30
2023-03-11T19:31:19.384Z,14.70
2023-03-11T19:33:50.208Z,16.40
2023-03-11T19:36:18.592Z,23.10
2023-03-11T19:38:47.830Z,28.70
2023-03-11T19:41:22.334Z,16.40
2023-03-11T19:43:50.682Z,23.50
2023-03-11T19:46:23.094Z,21.70
2023-03-11T19:48:51.300Z,18.90
2023-03-11T19:51:19.566Z,12.50
2023-03-11T19:53:47.991Z,20.30
2023-03-11T19:56:16.202Z,16.00
2023-03-11T19:58:45.470Z,16.70
2023-03-11T20:01:23.036Z,22.90
2023-03-11T20:03:52.158Z,14.30
2023-03-11T20:06:22.264Z,18.50
2023-03-11T20:09:01.720Z,24.00
2023-03-11T20:11:29.905Z,17.20
2023-03-11T20:13:58.197Z,19.20
2023-03-11T20:16:26.531Z,15.70
2023-03-11T20:18:58.720Z,13.50
2023-03-11T20:21:27.526Z,12.50
2023-03-11T20:23:56.844Z,12.70
2023-03-11T20:26:26.602Z,12.60
2023-03-11T20:28:56.907Z,11.70
2023-03-11T20:31:27.064Z,12.20
2023-03-11T20:33:56.408Z,13.90
2023-03-11T20:36:36.556Z,12.60
2023-03-11T20:39:28.177Z,12.90
2023-03-11T20:41:56.201Z,13.40
2023-03-11T20:44:24.526Z,12.70
2023-03-11T20:46:55.650Z,12.30
2023-03-11T20:49:24.234Z,13.40
2023-03-11T20:52:25.416Z,16.40
2023-03-11T20:55:10.492Z,22.40
2023-03-11T20:57:45.174Z,20.60
2023-03-11T21:00:14.161Z,21.50
2023-03-11T21:02:43.315Z,20.80
2023-03-11T21:05:35.660Z,21.10
2023-03-11T21:08:06.734Z,24.30
2023-03-11T21:10:58.102Z,20.70
2023-03-11T21:13:32.581Z,23.00
2023-03-11T21:16:01.317Z,22.60
2023-03-11T21:18:29.664Z,23.30
2023-03-11T21:21:08.994Z,25.40
2023-03-11T21:23:43.699Z,26.90
2023-03-11T21:26:14.933Z,21.80
2023-03-11T21:28:46.781Z,19.30
2023-03-11T21:31:42.107Z,19.90
2023-03-11T21:34:11.938Z,19.20
2023-03-11T21:36:48.642Z,19.10
2023-03-11T21:39:21.788Z,22.00
2023-03-11T21:41:51.053Z,19.90
2023-03-11T21:44:29.871Z,16.80
2023-03-11T21:46:58.637Z,17.40
2023-03-11T21:49:26.879Z,18.30
2023-03-11T21:51:55.047Z,16.50
2023-03-11T21:54:26.548Z,17.60
2023-03-11T21:57:02.460Z,18.40
2023-03-11T21:59:34.165Z,16.80
2023-03-11T22:02:07.781Z,15.40
2023-03-11T22:04:36.473Z,14.90
2023-03-11T22:07:05.026Z,14.80
2023-03-11T22:10:16.083Z,13.30
2023-03-11T22:13:08.005Z,15.60
2023-03-11T22:15:58.832Z,15.00
2023-03-11T22:18:50.395Z,15.10
2023-03-11T22:21:21.153Z,14.60
2023-03-11T22:24:11.771Z,14.80
2023-03-11T22:29:51.874Z,19.10
2023-03-11T22:32:26.991Z,16.10
2023-03-11T22:35:15.882Z,14.50
2023-03-11T22:37:51.477Z,15.00
2023-03-11T22:40:26.398Z,13.60
2023-03-11T22:43:00.734Z,14.70
2023-03-11T22:45:29.039Z,14.50
2023-03-11T22:48:30.130Z,13.20
2023-03-11T22:51:10.549Z,12.00
2023-03-11T22:54:06.064Z,14.00
2023-03-11T22:57:14.860Z,15.50
2023-03-11T22:59:43.081Z,13.70
2023-03-11T23:02:14.110Z,14.10
2023-03-11T23:04:48.466Z,12.00
2023-03-11T23:07:19.314Z,11.90
2023-03-11T23:09:47.804Z,12.40
2023-03-11T23:12:16.151Z,11.80
2023-03-11T23:14:46.293Z,12.30
2023-03-11T23:17:17.456Z,11.40
2023-03-11T23:19:48.737Z,11.70
2023-03-11T23:22:19.860Z,11.50
2023-03-11T23:24:53.872Z,10.80
2023-03-11T23:27:28.688Z,10.40
2023-03-11T23:29:57.086Z,12.50
2023-03-11T23:33:07.515Z,11.30
2023-03-11T23:35:47.630Z,11.50
2023-03-11T23:38:23.629Z,9.90
2023-03-11T23:40:52.274Z,11.60
2023-03-11T23:43:42.914Z,11.50
2023-03-11T23:46:34.249Z,11.90
2023-03-11T23:49:05.605Z,10.40
2023-03-11T23:51:49.744Z,12.40
2023-03-11T23:54:21.003Z,12.30
2023-03-11T23:56:49.778Z,12.10
2023-03-11T23:59:33.605Z,13.50
